Terminal Aerodrome Forecast
Issued by NWS Indianapolis, IN

Home | Current Version | Previous Version | Text Only | Print | Product List | Glossary On
Versions: 1 2 3 4 5 6 7 8 9 10 11 12 13 14 15 16 17 18 19 20 21 22 23 24 25 26 27 28
000
FTUS43 KIND 201100
TAFIND
TAF
KIND 201120Z 2012/2118 20008KT P6SM VCSH BKN080
     FM201400 21012KT P6SM VCSH BKN035
     FM202200 29008KT P6SM BKN035
     FM210300 31006KT P6SM SCT035
     FM210900 33004KT 4SM BR BKN025=

USA.gov is the U.S. government's official web portal to all federal, state and local government web resources and services.